Time;durP1;ratioP1;P1;durP2;ratioP2;P2;SDS_P1;SDS_P2;PMS_P1;PMS_P2;Temp;Humidity;BMP_temperature;BMP_pressure;BME280_temperature;BME280_humidity;BME280_pressure;Samples;Min_cycle;Max_cycle;Signal;HPM_P1;HPM_P2
2024/02/26 00:01:40;;;;;;;11.18;5.93;;;11.80;77.20;;;;;;5073811;28;20127;-74
2024/02/26 00:04:06;;;;;;;9.30;5.28;;;11.90;77.10;;;;;;5055975;28;20484;-73
2024/02/26 00:06:32;;;;;;;12.73;5.70;;;11.90;76.90;;;;;;5055712;28;20433;-74
2024/02/26 00:08:58;;;;;;;12.23;6.18;;;11.90;77.10;;;;;;5055912;28;20440;-72
2024/02/26 00:11:23;;;;;;;10.10;5.88;;;11.90;76.90;;;;;;5073564;28;20060;-74
2024/02/26 00:13:49;;;;;;;10.50;6.40;;;11.90;76.90;;;;;;5073626;28;20031;-73
2024/02/26 00:16:15;;;;;;;13.30;6.13;;;12.00;77.10;;;;;;5073437;28;20186;-73
2024/02/26 00:18:41;;;;;;;9.85;5.55;;;12.00;76.90;;;;;;5073689;28;20032;-74
2024/02/26 00:21:06;;;;;;;10.23;5.55;;;12.00;76.90;;;;;;5073196;28;20048;-73
2024/02/26 00:23:32;;;;;;;11.82;5.93;;;11.90;77.40;;;;;;5055428;28;20033;-73
2024/02/26 00:25:58;;;;;;;13.68;5.90;;;12.00;76.90;;;;;;5073173;28;20028;-74
2024/02/26 00:28:24;;;;;;;11.93;6.15;;;12.00;76.90;;;;;;5073396;28;20104;-73
2024/02/26 00:30:55;;;;;;;10.57;6.53;;;12.00;76.80;;;;;;5073414;28;20040;-73
2024/02/26 00:33:21;;;;;;;10.63;6.03;;;12.00;76.80;;;;;;5073452;28;20043;-74
2024/02/26 00:35:47;;;;;;;11.13;6.65;;;11.90;76.90;;;;;;5055318;28;20066;-73
2024/02/26 00:38:13;;;;;;;13.52;6.43;;;11.90;77.20;;;;;;5073739;28;20028;-73
2024/02/26 00:40:40;;;;;;;13.40;6.90;;;11.80;77.10;;;;;;5073269;28;20499;-72
2024/02/26 00:43:09;;;;;;;10.52;6.43;;;11.80;77.20;;;;;;5055088;28;20051;-73
2024/02/26 00:45:34;;;;;;;12.07;7.00;;;11.70;77.90;;;;;;5072862;28;20419;-74
2024/02/26 00:48:04;;;;;;;12.18;6.97;;;11.70;77.30;;;;;;5054815;28;20046;-73
2024/02/26 00:50:33;;;;;;;12.20;7.68;;;11.70;77.50;;;;;;5072925;28;20442;-74
2024/02/26 00:52:59;;;;;;;10.60;6.95;;;11.60;77.10;;;;;;5072705;28;20106;-74
2024/02/26 00:55:25;;;;;;;12.52;7.35;;;11.60;77.40;;;;;;5072876;28;20036;-74
2024/02/26 00:57:50;;;;;;;10.95;7.47;;;11.60;77.70;;;;;;5072783;28;20047;-73
2024/02/26 01:00:16;;;;;;;11.88;7.75;;;11.50;77.90;;;;;;5072786;28;20036;-72
2024/02/26 01:02:42;;;;;;;14.77;7.93;;;11.40;78.10;;;;;;5072512;28;20493;-72
2024/02/26 01:05:11;;;;;;;16.00;8.60;;;11.40;78.40;;;;;;5073023;28;20033;-74
2024/02/26 01:07:37;;;;;;;14.25;8.70;;;11.30;79.10;;;;;;5072705;28;20041;-74
2024/02/26 01:10:03;;;;;;;16.35;10.18;;;11.30;79.30;;;;;;5054372;28;20024;-72
2024/02/26 01:12:29;;;;;;;17.52;10.48;;;11.20;79.10;;;;;;5072597;28;20025;-74
2024/02/26 01:14:55;;;;;;;18.02;11.85;;;11.10;79.30;;;;;;5072913;28;20039;-74
2024/02/26 01:17:21;;;;;;;15.95;11.88;;;11.00;79.70;;;;;;5072654;28;20036;-73
2024/02/26 01:19:47;;;;;;;19.88;13.15;;;10.90;79.80;;;;;;5071551;28;20054;-73
2024/02/26 01:22:12;;;;;;;19.40;12.77;;;10.90;80.00;;;;;;5072394;28;20052;-73
2024/02/26 01:24:38;;;;;;;18.90;12.98;;;10.90;80.20;;;;;;5072337;28;20086;-72
2024/02/26 01:27:04;;;;;;;16.02;11.88;;;10.80;80.10;;;;;;5072485;28;20040;-72
2024/02/26 01:29:30;;;;;;;18.63;11.57;;;10.80;80.30;;;;;;5072535;28;20427;-72
2024/02/26 01:31:56;;;;;;;19.05;12.38;;;10.80;80.50;;;;;;5072116;28;20512;-73
2024/02/26 01:34:22;;;;;;;19.40;12.48;;;10.80;80.60;;;;;;5072423;28;20067;-72
2024/02/26 01:36:47;;;;;;;18.00;11.35;;;10.70;80.20;;;;;;5072296;28;20044;-73
2024/02/26 01:39:13;;;;;;;16.88;12.73;;;10.70;80.90;;;;;;5072195;28;20036;-73
2024/02/26 01:41:39;;;;;;;20.52;12.60;;;10.70;80.90;;;;;;5072323;28;20062;-73
2024/02/26 01:44:06;;;;;;;14.50;10.68;;;10.70;80.80;;;;;;5072288;28;20033;-73
2024/02/26 01:46:34;;;;;;;18.92;12.23;;;10.60;80.60;;;;;;5071906;28;20418;-73
2024/02/26 01:49:01;;;;;;;17.40;11.55;;;10.60;80.70;;;;;;5072151;28;20025;-72
2024/02/26 01:51:28;;;;;;;19.60;11.93;;;10.60;80.40;;;;;;5072282;28;20029;-73
2024/02/26 01:53:54;;;;;;;18.08;11.50;;;10.60;80.80;;;;;;5072429;28;20477;-72
2024/02/26 01:56:21;;;;;;;15.00;10.80;;;10.60;81.20;;;;;;5071785;28;20033;-73
2024/02/26 01:58:48;;;;;;;17.50;12.05;;;10.60;81.20;;;;;;5071772;28;20064;-73
2024/02/26 02:01:18;;;;;;;16.73;11.70;;;10.60;81.40;;;;;;5071776;28;20121;-73
2024/02/26 02:03:44;;;;;;;18.00;11.57;;;10.60;81.50;;;;;;5072258;28;20425;-72
2024/02/26 02:06:11;;;;;;;19.95;12.38;;;10.60;81.30;;;;;;5071819;28;20557;-73
2024/02/26 02:08:38;;;;;;;17.33;11.65;;;10.50;81.10;;;;;;5072047;28;20056;-73
2024/02/26 02:11:04;;;;;;;19.00;12.70;;;10.40;81.40;;;;;;5071917;28;20035;-73
2024/02/26 02:13:30;;;;;;;17.27;11.77;;;10.40;81.80;;;;;;5072126;28;20121;-72
2024/02/26 02:15:55;;;;;;;17.95;11.15;;;10.30;81.90;;;;;;5076081;28;20029;-73
2024/02/26 02:18:21;;;;;;;19.27;11.38;;;10.30;82.20;;;;;;5075936;28;20032;-72
2024/02/26 02:20:47;;;;;;;18.23;11.30;;;10.20;81.80;;;;;;5075883;28;20035;-73
2024/02/26 02:23:14;;;;;;;17.73;12.00;;;10.20;82.30;;;;;;5075755;28;20455;-74
2024/02/26 02:25:39;;;;;;;18.45;12.18;;;10.10;82.30;;;;;;5075355;28;20021;-73
2024/02/26 02:28:06;;;;;;;16.27;11.00;;;10.10;82.60;;;;;;5075456;28;20037;-73
2024/02/26 02:30:33;;;;;;;18.20;11.85;;;10.00;82.70;;;;;;5075710;28;20101;-72
2024/02/26 02:32:59;;;;;;;17.88;11.15;;;10.10;82.80;;;;;;5075460;28;20044;-73
2024/02/26 02:35:25;;;;;;;19.15;11.38;;;10.10;82.80;;;;;;5075218;28;20028;-72
2024/02/26 02:37:56;;;;;;;15.73;11.05;;;10.10;82.90;;;;;;5075404;28;20472;-73
2024/02/26 02:40:22;;;;;;;15.88;11.35;;;10.10;83.30;;;;;;5075437;28;20039;-73
2024/02/26 02:42:47;;;;;;;15.30;11.68;;;10.10;83.00;;;;;;5075308;28;20044;-73
2024/02/26 02:45:13;;;;;;;16.48;10.85;;;10.10;83.20;;;;;;5075161;28;20495;-73
2024/02/26 02:47:39;;;;;;;15.82;11.02;;;10.10;83.20;;;;;;5075175;28;20062;-73
2024/02/26 02:50:05;;;;;;;17.73;10.43;;;10.00;83.40;;;;;;5075228;28;20052;-73
2024/02/26 02:52:31;;;;;;;14.68;10.27;;;10.00;83.30;;;;;;5075358;28;20048;-72
2024/02/26 02:54:56;;;;;;;15.38;10.50;;;10.00;83.30;;;;;;5075014;28;20037;-73
2024/02/26 02:57:22;;;;;;;16.10;10.73;;;10.00;83.40;;;;;;5074722;28;20031;-71
2024/02/26 02:59:48;;;;;;;14.75;10.18;;;10.00;83.40;;;;;;5075010;28;20377;-72
2024/02/26 03:02:14;;;;;;;18.38;10.90;;;10.00;83.50;;;;;;5075017;28;20037;-73
2024/02/26 03:04:39;;;;;;;18.05;11.50;;;10.00;83.60;;;;;;5074712;28;20029;-73
2024/02/26 03:07:05;;;;;;;13.50;10.18;;;10.00;83.60;;;;;;5074742;28;20039;-73
2024/02/26 03:09:32;;;;;;;17.42;11.15;;;9.90;84.80;;;;;;5074739;28;20369;-73
2024/02/26 03:11:57;;;;;;;15.45;10.88;;;10.00;83.60;;;;;;5074465;28;20029;-72
2024/02/26 03:14:23;;;;;;;16.13;9.65;;;9.80;84.60;;;;;;5074704;28;20032;-72
2024/02/26 03:16:49;;;;;;;15.15;9.90;;;9.80;84.90;;;;;;5056354;28;20032;-72
2024/02/26 03:19:18;;;;;;;15.30;10.23;;;9.80;84.70;;;;;;5074512;28;20098;-72
2024/02/26 03:21:43;;;;;;;16.40;10.48;;;9.80;85.10;;;;;;5074555;28;20044;-72
2024/02/26 03:24:10;;;;;;;15.55;9.85;;;9.60;84.70;;;;;;5074527;28;20025;-73
2024/02/26 03:26:36;;;;;;;15.23;10.40;;;9.50;85.00;;;;;;5073975;28;20041;-73
2024/02/26 03:29:02;;;;;;;15.45;10.75;;;9.50;85.30;;;;;;5074532;28;20094;-73
2024/02/26 03:31:28;;;;;;;16.42;10.85;;;9.40;85.30;;;;;;5074297;28;20484;-74
2024/02/26 03:33:54;;;;;;;16.30;10.75;;;9.40;85.70;;;;;;5074419;28;20455;-73
2024/02/26 03:36:21;;;;;;;17.08;10.02;;;9.40;85.70;;;;;;5074230;28;20119;-73
2024/02/26 03:38:47;;;;;;;18.55;10.43;;;9.40;85.60;;;;;;5074183;28;20028;-73
2024/02/26 03:41:13;;;;;;;18.23;11.18;;;9.40;85.80;;;;;;5056334;28;20071;-72
2024/02/26 03:43:39;;;;;;;15.38;10.52;;;9.50;85.90;;;;;;5074146;28;20074;-73
2024/02/26 03:46:13;;;;;;;16.30;11.10;;;9.60;85.80;;;;;;5073971;28;20068;-73
2024/02/26 03:48:40;;;;;;;15.30;11.00;;;9.60;85.80;;;;;;5074056;28;20503;-74
2024/02/26 03:51:06;;;;;;;17.92;10.80;;;9.60;85.50;;;;;;5074200;28;20059;-73
2024/02/26 03:53:31;;;;;;;14.13;10.55;;;9.60;85.40;;;;;;5074031;28;20033;-72
2024/02/26 03:55:57;;;;;;;17.70;10.38;;;9.60;85.60;;;;;;5072388;28;20060;-74
2024/02/26 03:58:23;;;;;;;13.75;9.82;;;9.60;85.60;;;;;;5073775;28;20066;-73
2024/02/26 04:00:48;;;;;;;16.98;10.77;;;9.50;85.60;;;;;;5073880;28;20086;-74
2024/02/26 04:03:14;;;;;;;15.43;11.15;;;9.50;85.70;;;;;;5073946;28;20124;-73
2024/02/26 04:05:40;;;;;;;17.90;11.43;;;9.50;85.80;;;;;;5073884;28;20044;-73
2024/02/26 04:08:07;;;;;;;15.30;11.50;;;9.50;86.10;;;;;;5073680;28;20361;-73
2024/02/26 04:10:35;;;;;;;13.63;9.70;;;9.50;86.30;;;;;;5073304;28;20032;-73
2024/02/26 04:13:00;;;;;;;15.98;10.38;;;9.50;86.30;;;;;;5073534;28;20028;-73
2024/02/26 04:15:26;;;;;;;19.08;10.40;;;9.50;86.20;;;;;;5073396;28;20104;-73
2024/02/26 04:17:52;;;;;;;15.95;10.75;;;9.40;86.10;;;;;;5073354;28;20043;-72
2024/02/26 04:20:18;;;;;;;15.70;10.07;;;9.40;86.30;;;;;;5073255;28;20086;-72
2024/02/26 04:22:43;;;;;;;15.20;10.45;;;9.30;86.30;;;;;;5072935;28;20143;-74
2024/02/26 04:25:09;;;;;;;15.85;10.88;;;9.20;86.00;;;;;;5073227;28;20460;-72
2024/02/26 04:27:35;;;;;;;16.63;10.52;;;9.30;86.30;;;;;;5073197;28;20039;-73
2024/02/26 04:30:01;;;;;;;15.82;10.77;;;9.30;86.20;;;;;;5073047;28;20025;-73
2024/02/26 04:32:27;;;;;;;15.52;10.75;;;9.30;86.30;;;;;;5071667;28;20534;-73
2024/02/26 04:34:53;;;;;;;18.10;10.82;;;9.20;86.50;;;;;;5073029;28;20098;-73
2024/02/26 04:37:19;;;;;;;15.52;9.63;;;9.20;86.40;;;;;;5072604;28;20024;-73
2024/02/26 04:39:45;;;;;;;16.95;10.85;;;9.20;86.50;;;;;;5073246;28;20104;-74
2024/02/26 04:42:11;;;;;;;20.95;11.88;;;9.30;86.50;;;;;;5072900;28;20048;-74
2024/02/26 04:44:36;;;;;;;12.35;9.15;;;9.40;86.30;;;;;;5073269;28;20032;-73
2024/02/26 04:47:02;;;;;;;18.13;10.80;;;9.30;86.30;;;;;;5073002;28;20032;-74
2024/02/26 04:49:28;;;;;;;17.95;10.85;;;9.30;86.30;;;;;;5073146;28;20064;-72
2024/02/26 04:51:54;;;;;;;15.48;10.38;;;9.30;86.60;;;;;;5072788;28;20089;-73
2024/02/26 04:54:20;;;;;;;15.15;11.40;;;9.30;86.60;;;;;;5072980;28;20039;-73
2024/02/26 04:56:46;;;;;;;17.23;10.05;;;9.30;86.50;;;;;;5072718;28;20039;-73
2024/02/26 04:59:12;;;;;;;14.10;9.73;;;9.30;86.60;;;;;;5072740;28;20032;-73
2024/02/26 05:01:37;;;;;;;15.70;9.18;;;9.30;86.80;;;;;;5072893;28;20082;-74
2024/02/26 05:04:03;;;;;;;16.65;10.15;;;9.30;86.70;;;;;;5072470;28;20029;-73
2024/02/26 05:06:29;;;;;;;15.70;9.35;;;9.30;86.90;;;;;;5073107;28;20036;-73
2024/02/26 05:08:55;;;;;;;14.00;9.55;;;9.30;86.80;;;;;;5073057;28;20198;-73
2024/02/26 05:11:21;;;;;;;14.75;9.65;;;9.40;86.80;;;;;;5072912;28;20047;-73
2024/02/26 05:13:48;;;;;;;13.95;10.00;;;9.40;86.60;;;;;;5072512;28;20032;-76
2024/02/26 05:16:14;;;;;;;14.15;10.25;;;9.40;86.60;;;;;;5072764;28;20029;-72
2024/02/26 05:18:39;;;;;;;14.60;9.43;;;9.30;86.30;;;;;;5072700;28;20037;-73
2024/02/26 05:21:05;;;;;;;15.02;10.23;;;9.30;86.60;;;;;;5072390;28;20037;-73
2024/02/26 05:23:31;;;;;;;13.18;9.40;;;9.30;86.90;;;;;;5072630;28;20099;-73
2024/02/26 05:25:56;;;;;;;26.55;14.75;;;9.30;86.60;;;;;;5054478;28;20028;-73
2024/02/26 05:28:22;;;;;;;20.00;11.48;;;9.30;86.80;;;;;;5072687;28;20399;-73
2024/02/26 05:30:48;;;;;;;14.18;10.45;;;9.30;87.20;;;;;;5072823;28;20040;-73
2024/02/26 05:33:13;;;;;;;14.82;9.52;;;9.30;87.00;;;;;;5072636;28;20037;-73
2024/02/26 05:35:40;;;;;;;16.42;9.07;;;9.30;87.20;;;;;;5072251;28;20480;-74
2024/02/26 05:38:06;;;;;;;14.52;9.00;;;9.30;87.20;;;;;;5072629;28;20119;-74
2024/02/26 05:40:31;;;;;;;16.02;9.57;;;9.40;87.30;;;;;;5072529;28;20497;-73
2024/02/26 05:42:57;;;;;;;14.73;9.13;;;9.50;86.70;;;;;;5072243;28;20477;-73
2024/02/26 05:45:23;;;;;;;14.25;9.55;;;9.50;86.70;;;;;;5072301;28;20024;-73
2024/02/26 05:47:49;;;;;;;16.65;9.10;;;9.60;86.50;;;;;;5072313;28;20045;-74
2024/02/26 05:50:15;;;;;;;14.50;9.50;;;9.70;86.30;;;;;;5075335;28;20032;-74
2024/02/26 05:52:41;;;;;;;16.23;9.40;;;9.70;85.90;;;;;;5076460;28;20032;-74
2024/02/26 05:55:07;;;;;;;14.68;8.70;;;9.70;86.10;;;;;;5076323;28;20040;-73
2024/02/26 05:57:34;;;;;;;14.30;9.50;;;9.70;86.00;;;;;;5076281;28;20029;-73
2024/02/26 06:00:03;;;;;;;14.98;9.23;;;9.70;85.90;;;;;;5076354;28;20039;-74
2024/02/26 06:02:30;;;;;;;14.77;10.40;;;9.70;85.70;;;;;;5076318;28;20064;-73
2024/02/26 06:04:56;;;;;;;16.85;9.02;;;9.70;86.00;;;;;;5076202;28;20036;-73
2024/02/26 06:07:21;;;;;;;14.32;8.95;;;9.70;86.00;;;;;;5076233;28;20033;-74
2024/02/26 06:09:48;;;;;;;13.52;8.95;;;9.80;85.90;;;;;;5076415;28;20033;-75
2024/02/26 06:12:14;;;;;;;17.45;9.32;;;9.90;86.40;;;;;;5076185;28;20032;-74
2024/02/26 06:14:39;;;;;;;15.13;9.65;;;9.90;85.50;;;;;;5076018;28;20074;-74
2024/02/26 06:17:07;;;;;;;12.90;8.70;;;9.90;85.40;;;;;;5076102;28;20503;-74
2024/02/26 06:19:32;;;;;;;19.60;9.20;;;9.90;85.30;;;;;;5075954;28;20021;-73
2024/02/26 06:21:58;;;;;;;14.68;8.82;;;10.00;84.50;;;;;;5075621;28;20049;-74
2024/02/26 06:24:24;;;;;;;15.48;9.50;;;10.10;84.10;;;;;;5075713;28;20032;-74
2024/02/26 06:26:49;;;;;;;19.23;10.93;;;10.20;84.20;;;;;;5075738;28;20033;-75
2024/02/26 06:29:15;;;;;;;15.02;10.15;;;10.30;83.80;;;;;;5075617;28;20020;-73
2024/02/26 06:31:41;;;;;;;15.65;10.48;;;10.30;83.60;;;;;;5075454;28;20055;-73
2024/02/26 06:34:06;;;;;;;18.63;10.65;;;10.40;83.20;;;;;;5075038;28;20436;-72
2024/02/26 06:36:33;;;;;;;14.95;11.07;;;10.30;82.80;;;;;;5075465;28;20048;-73
2024/02/26 06:38:58;;;;;;;15.38;9.93;;;10.40;83.10;;;;;;5075509;28;20039;-73
2024/02/26 06:41:27;;;;;;;15.75;10.43;;;10.40;82.60;;;;;;5075285;28;20033;-74
2024/02/26 06:43:54;;;;;;;14.77;9.85;;;10.50;82.50;;;;;;5075346;28;20031;-74
2024/02/26 06:46:19;;;;;;;17.08;9.75;;;10.60;82.10;;;;;;5075153;28;20507;-72
2024/02/26 06:48:45;;;;;;;15.60;9.85;;;10.70;81.90;;;;;;5075224;28;20032;-73
2024/02/26 06:51:11;;;;;;;19.08;10.32;;;10.80;82.00;;;;;;5075227;28;20074;-74
2024/02/26 06:53:37;;;;;;;13.77;9.15;;;10.90;81.00;;;;;;5075541;28;20056;-71
2024/02/26 06:56:02;;;;;;;13.57;8.38;;;11.20;80.90;;;;;;5075322;28;20029;-74
2024/02/26 06:58:28;;;;;;;18.02;8.32;;;12.00;79.90;;;;;;5075227;28;20047;-75
2024/02/26 07:00:54;;;;;;;12.02;8.65;;;13.30;76.80;;;;;;5074641;28;20041;-73
2024/02/26 07:03:19;;;;;;;14.20;8.10;;;14.30;74.00;;;;;;5075438;28;20032;-75
2024/02/26 07:05:46;;;;;;;15.63;8.70;;;15.30;71.80;;;;;;5075455;28;20042;-75
2024/02/26 07:08:11;;;;;;;14.52;8.60;;;16.10;70.00;;;;;;5075242;28;20037;-74
2024/02/26 07:10:37;;;;;;;15.43;8.10;;;17.00;68.00;;;;;;5074977;28;20132;-73
2024/02/26 07:13:03;;;;;;;15.88;8.13;;;18.10;65.70;;;;;;5074932;28;20606;-74
2024/02/26 07:15:29;;;;;;;14.13;7.75;;;18.90;64.10;;;;;;5074710;28;20029;-74
2024/02/26 07:17:54;;;;;;;13.63;7.90;;;19.60;62.10;;;;;;5074730;28;20077;-74
2024/02/26 07:20:20;;;;;;;16.50;7.88;;;20.20;60.70;;;;;;5075003;28;20071;-74
2024/02/26 07:22:46;;;;;;;13.15;8.27;;;20.70;59.60;;;;;;5075034;28;20526;-75
2024/02/26 07:25:13;;;;;;;12.38;7.72;;;21.30;58.40;;;;;;5074571;28;20388;-74
2024/02/26 07:27:40;;;;;;;15.77;8.52;;;21.50;56.80;;;;;;5074503;28;20421;-75
2024/02/26 07:30:08;;;;;;;12.93;7.30;;;21.20;56.70;;;;;;5074369;28;20029;-75
2024/02/26 07:32:33;;;;;;;13.13;7.80;;;20.80;57.00;;;;;;5074619;28;20447;-74
2024/02/26 07:34:59;;;;;;;15.77;8.20;;;21.20;56.10;;;;;;5074276;28;20108;-76
2024/02/26 07:37:25;;;;;;;18.80;8.00;;;20.40;56.50;;;;;;5074565;28;20055;-76
2024/02/26 07:39:50;;;;;;;16.13;8.57;;;20.10;57.70;;;;;;5074296;28;20043;-75
2024/02/26 07:42:16;;;;;;;13.63;8.50;;;20.40;57.10;;;;;;5074288;28;20113;-75
2024/02/26 07:44:42;;;;;;;12.18;7.53;;;19.80;57.10;;;;;;5074213;28;20032;-75
2024/02/26 07:47:09;;;;;;;16.25;8.23;;;19.30;57.30;;;;;;5074136;28;20044;-74
2024/02/26 07:49:35;;;;;;;17.83;7.97;;;18.50;58.80;;;;;;5073843;28;20102;-75
2024/02/26 07:52:00;;;;;;;16.98;8.30;;;17.60;59.70;;;;;;5074068;28;20498;-75
2024/02/26 07:54:26;;;;;;;15.68;8.13;;;16.90;61.20;;;;;;5074088;28;20036;-74
2024/02/26 07:56:52;;;;;;;12.48;7.65;;;16.20;62.30;;;;;;5073906;28;20040;-74
2024/02/26 07:59:18;;;;;;;13.75;7.47;;;15.70;63.20;;;;;;5055844;28;20029;-74
2024/02/26 08:01:44;;;;;;;17.15;7.55;;;15.40;63.80;;;;;;5073495;28;20055;-74
2024/02/26 08:04:09;;;;;;;15.98;7.95;;;15.20;63.90;;;;;;5073533;28;20029;-75
2024/02/26 08:06:35;;;;;;;13.60;7.82;;;15.10;64.80;;;;;;5073760;28;20037;-74
2024/02/26 08:09:01;;;;;;;13.18;7.60;;;15.20;65.00;;;;;;5073631;28;20484;-74
2024/02/26 08:11:27;;;;;;;13.60;7.78;;;15.20;64.90;;;;;;5072411;28;20032;-73
2024/02/26 08:13:53;;;;;;;15.02;8.32;;;15.20;64.80;;;;;;5073371;28;20021;-74
2024/02/26 08:16:19;;;;;;;16.95;8.15;;;15.10;65.20;;;;;;5073405;28;20115;-74
2024/02/26 08:18:44;;;;;;;21.42;8.70;;;14.90;64.90;;;;;;5073420;28;20029;-75
2024/02/26 08:21:10;;;;;;;19.33;9.10;;;14.80;65.40;;;;;;5073304;28;20551;-73
2024/02/26 08:23:36;;;;;;;16.85;7.65;;;14.90;65.70;;;;;;5073293;28;20036;-75
2024/02/26 08:26:04;;;;;;;20.00;8.10;;;14.80;65.70;;;;;;5073418;28;20036;-74
2024/02/26 08:28:29;;;;;;;13.45;6.78;;;14.90;66.10;;;;;;5073047;28;20041;-75
2024/02/26 08:30:55;;;;;;;16.23;7.10;;;14.90;65.90;;;;;;5072811;28;20048;-75
2024/02/26 08:33:21;;;;;;;15.98;7.07;;;15.00;66.20;;;;;;5073225;28;20476;-73
2024/02/26 08:35:47;;;;;;;10.85;6.43;;;15.00;66.30;;;;;;5073196;28;20371;-73
2024/02/26 08:38:12;;;;;;;16.80;7.03;;;15.10;66.30;;;;;;5073046;28;20035;-73
2024/02/26 08:40:38;;;;;;;11.77;6.25;;;15.10;66.50;;;;;;5072901;28;20504;-74
2024/02/26 08:43:04;;;;;;;14.80;6.35;;;15.20;66.70;;;;;;5072468;28;20480;-75
2024/02/26 08:45:30;;;;;;;13.88;6.57;;;15.10;66.70;;;;;;5072832;28;20081;-75
2024/02/26 08:47:55;;;;;;;14.00;6.18;;;15.10;66.80;;;;;;5072868;28;20031;-74
2024/02/26 08:50:21;;;;;;;13.88;5.80;;;15.10;67.10;;;;;;5072765;28;20039;-74
2024/02/26 08:52:50;;;;;;;12.60;6.20;;;15.10;67.30;;;;;;5073008;28;20099;-74
2024/02/26 08:55:16;;;;;;;12.60;5.00;;;15.10;67.50;;;;;;5054651;28;20146;-75
2024/02/26 08:57:42;;;;;;;9.73;4.53;;;15.10;67.40;;;;;;5072514;28;20095;-74
2024/02/26 09:00:08;;;;;;;12.95;4.15;;;15.20;67.40;;;;;;5072447;28;20056;-74
2024/02/26 09:02:34;;;;;;;16.55;4.38;;;15.20;67.50;;;;;;5072358;28;20063;-74
2024/02/26 09:05:00;;;;;;;10.70;2.75;;;15.20;67.20;;;;;;5072396;28;20476;-73
2024/02/26 09:07:25;;;;;;;6.50;2.63;;;15.30;67.20;;;;;;5072513;28;20073;-74
2024/02/26 09:09:51;;;;;;;7.85;2.55;;;15.30;66.90;;;;;;5072720;28;20040;-75
2024/02/26 09:12:17;;;;;;;6.82;2.50;;;15.30;66.90;;;;;;5054319;28;20036;-74
2024/02/26 09:14:42;;;;;;;7.75;2.17;;;15.30;66.90;;;;;;5072608;28;20384;-75
2024/02/26 09:17:08;;;;;;;6.35;2.70;;;15.20;66.80;;;;;;5072441;28;20032;-75
2024/02/26 09:19:34;;;;;;;7.70;2.90;;;15.20;66.90;;;;;;5072279;28;20111;-75
2024/02/26 09:21:59;;;;;;;7.45;2.70;;;15.20;66.90;;;;;;5072461;28;20041;-73
2024/02/26 09:24:26;;;;;;;10.95;2.80;;;15.20;67.10;;;;;;5070920;28;20035;-74
2024/02/26 09:26:52;;;;;;;11.10;2.67;;;15.20;67.00;;;;;;5072146;28;20041;-74
2024/02/26 09:29:17;;;;;;;15.13;3.30;;;15.20;67.00;;;;;;5072278;28;20031;-74
2024/02/26 09:31:47;;;;;;;9.68;3.00;;;15.20;66.90;;;;;;5072189;28;20124;-75
2024/02/26 09:34:13;;;;;;;20.95;3.92;;;15.20;66.60;;;;;;5072222;28;20038;-74
2024/02/26 09:36:38;;;;;;;15.82;3.10;;;15.20;66.50;;;;;;5072793;28;20037;-75
2024/02/26 09:39:04;;;;;;;11.90;2.95;;;15.20;66.40;;;;;;5072688;28;20059;-73
2024/02/26 09:41:30;;;;;;;18.65;3.35;;;15.20;66.00;;;;;;5072212;28;20041;-74
2024/02/26 09:43:57;;;;;;;13.73;3.10;;;15.20;65.70;;;;;;5072352;28;20029;-74
2024/02/26 09:46:26;;;;;;;22.92;2.92;;;15.30;65.30;;;;;;5072142;28;20029;-74
2024/02/26 09:48:52;;;;;;;14.15;3.03;;;15.30;65.10;;;;;;5072824;28;20033;-75
2024/02/26 09:51:19;;;;;;;6.63;2.20;;;15.30;64.80;;;;;;5072495;28;20079;-73
2024/02/26 09:53:47;;;;;;;5.13;2.17;;;15.40;64.50;;;;;;5072159;28;20488;-74
2024/02/26 09:56:13;;;;;;;6.38;2.40;;;15.40;64.10;;;;;;5054077;28;20116;-77
2024/02/26 09:58:39;;;;;;;6.90;2.30;;;15.50;64.10;;;;;;5071892;28;20111;-75
2024/02/26 10:01:17;;;;;;;8.43;2.30;;;15.70;63.80;;;;;;5072141;28;20025;-74
2024/02/26 10:03:44;;;;;;;5.72;2.63;;;15.80;63.10;;;;;;5072217;28;20161;-74
2024/02/26 10:06:11;;;;;;;7.93;2.65;;;15.90;62.70;;;;;;5072038;28;20047;-76
2024/02/26 10:08:37;;;;;;;5.40;2.00;;;16.10;62.30;;;;;;5071684;28;20481;-75
2024/02/26 10:11:14;;;;;;;6.10;2.55;;;16.20;62.00;;;;;;5072034;28;20036;-75
2024/02/26 10:13:41;;;;;;;6.25;2.45;;;16.20;61.80;;;;;;5072039;28;20029;-74
2024/02/26 10:16:07;;;;;;;4.95;2.08;;;16.30;61.40;;;;;;5071964;28;20036;-75
2024/02/26 10:18:46;;;;;;;4.88;1.88;;;16.40;61.40;;;;;;5071999;28;20477;-68
2024/02/26 10:21:12;;;;;;;8.10;2.13;;;16.40;61.00;;;;;;5071564;28;20033;-74
2024/02/26 10:23:38;;;;;;;4.88;1.85;;;16.40;61.00;;;;;;5071749;28;20075;-75
2024/02/26 10:26:04;;;;;;;5.82;1.80;;;16.40;60.50;;;;;;5071968;28;20036;-75
2024/02/26 10:28:30;;;;;;;4.47;1.92;;;16.40;60.80;;;;;;5072005;28;20037;-74
2024/02/26 10:30:56;;;;;;;6.50;2.22;;;16.40;60.90;;;;;;5071902;28;20515;-75
2024/02/26 10:33:22;;;;;;;3.78;1.60;;;16.40;60.90;;;;;;5054018;28;20028;-75
2024/02/26 10:35:48;;;;;;;9.63;2.33;;;16.40;61.00;;;;;;5074013;28;20036;-74
2024/02/26 10:38:17;;;;;;;5.70;1.90;;;16.30;60.80;;;;;;5075217;28;20037;-75
2024/02/26 10:40:42;;;;;;;7.57;2.63;;;16.30;60.60;;;;;;5075147;28;20124;-74
2024/02/26 10:43:08;;;;;;;9.85;2.10;;;16.20;60.70;;;;;;5075152;28;20123;-75
2024/02/26 10:45:34;;;;;;;6.15;2.42;;;16.20;60.70;;;;;;5075372;28;20033;-75
2024/02/26 10:48:00;;;;;;;6.68;2.00;;;16.20;60.90;;;;;;5075392;28;20040;-75
2024/02/26 10:50:26;;;;;;;9.52;2.25;;;16.20;60.70;;;;;;5075175;28;20504;-75
2024/02/26 10:52:54;;;;;;;5.88;2.28;;;16.20;60.80;;;;;;5075487;28;20067;-73
2024/02/26 10:55:22;;;;;;;6.78;2.20;;;16.20;61.00;;;;;;5057236;28;20033;-74
2024/02/26 10:57:50;;;;;;;7.40;2.28;;;16.20;61.10;;;;;;5075323;28;20396;-74
2024/02/26 11:00:16;;;;;;;5.80;1.75;;;16.20;61.40;;;;;;5056877;28;20488;-73
2024/02/26 11:02:46;;;;;;;6.05;2.03;;;16.20;61.50;;;;;;5074690;28;20442;-75
2024/02/26 11:05:13;;;;;;;7.95;2.25;;;16.10;61.40;;;;;;5075056;28;20039;-75
2024/02/26 11:07:41;;;;;;;6.55;2.40;;;16.20;61.70;;;;;;5075160;28;20488;-75
2024/02/26 11:10:07;;;;;;;7.57;2.80;;;16.20;61.60;;;;;;5074650;28;20470;-75
2024/02/26 11:12:38;;;;;;;5.55;2.58;;;16.30;61.80;;;;;;5074650;28;20107;-74
2024/02/26 11:15:04;;;;;;;4.72;2.20;;;16.40;61.80;;;;;;5074521;28;20025;-73
2024/02/26 11:17:31;;;;;;;6.45;2.53;;;16.50;61.70;;;;;;5074831;28;20040;-73
2024/02/26 11:19:58;;;;;;;8.35;2.83;;;16.50;61.60;;;;;;5074698;28;20029;-74
2024/02/26 11:22:28;;;;;;;8.38;2.83;;;16.50;61.50;;;;;;5075327;28;20139;-75
2024/02/26 11:24:57;;;;;;;11.52;2.72;;;16.40;61.60;;;;;;5074671;28;20020;-75
2024/02/26 11:27:29;;;;;;;10.35;3.28;;;16.40;61.40;;;;;;5074505;28;20062;-75
2024/02/26 11:29:57;;;;;;;10.35;2.78;;;16.30;61.40;;;;;;5073918;28;20103;-74
2024/02/26 11:32:23;;;;;;;8.25;2.80;;;16.30;61.30;;;;;;5074298;28;20045;-74
2024/02/26 11:34:49;;;;;;;8.10;3.13;;;16.30;61.00;;;;;;5055996;28;20400;-74
2024/02/26 11:37:17;;;;;;;8.15;3.00;;;16.30;60.80;;;;;;5074113;28;20064;-74
2024/02/26 11:39:45;;;;;;;7.05;3.20;;;16.30;60.40;;;;;;5074118;28;20104;-74
2024/02/26 11:42:15;;;;;;;7.07;2.90;;;16.30;60.00;;;;;;5074157;28;20040;-74
2024/02/26 11:44:41;;;;;;;7.57;2.75;;;16.40;59.60;;;;;;5074361;28;20373;-74
2024/02/26 11:47:20;;;;;;;6.72;2.80;;;16.50;59.20;;;;;;5074533;28;20068;-74
2024/02/26 11:49:46;;;;;;;5.57;2.25;;;16.70;59.10;;;;;;5073971;28;20063;-74
2024/02/26 11:52:14;;;;;;;6.47;2.20;;;16.80;58.30;;;;;;5073794;28;20021;-74
2024/02/26 11:55:00;;;;;;;4.63;1.52;;;16.80;55.90;;;;;;5074097;28;20047;-73
2024/02/26 11:57:39;;;;;;;4.43;1.80;;;16.80;53.60;;;;;;5055537;28;20141;-75
2024/02/26 12:00:14;;;;;;;5.55;1.55;;;16.80;52.90;;;;;;5073649;28;20161;-75
2024/02/26 12:02:47;;;;;;;5.32;1.80;;;16.70;52.50;;;;;;5073988;28;20033;-75
2024/02/26 12:05:15;;;;;;;4.23;2.17;;;16.70;52.60;;;;;;5073657;28;20064;-76
2024/02/26 12:07:45;;;;;;;3.78;1.75;;;16.70;52.00;;;;;;5073967;28;20270;-75
2024/02/26 12:10:38;;;;;;;5.72;2.50;;;16.70;51.60;;;;;;5056311;28;20048;-75
2024/02/26 12:13:10;;;;;;;5.72;2.03;;;16.70;51.70;;;;;;5071633;28;20518;-75
2024/02/26 12:15:43;;;;;;;7.72;1.83;;;16.80;51.20;;;;;;5073978;28;20032;-78
2024/02/26 12:18:15;;;;;;;5.75;1.92;;;16.80;52.20;;;;;;5073525;28;20393;-73
2024/02/26 12:20:40;;;;;;;6.75;2.00;;;16.80;51.70;;;;;;5073537;28;20051;-75
2024/02/26 12:23:06;;;;;;;5.40;2.20;;;16.90;52.00;;;;;;5055565;28;20036;-75
2024/02/26 12:25:33;;;;;;;7.55;2.05;;;16.90;52.50;;;;;;5073514;28;20033;-75
2024/02/26 12:27:59;;;;;;;8.30;2.10;;;16.80;52.70;;;;;;5073661;28;20060;-74
2024/02/26 12:30:26;;;;;;;7.20;2.20;;;16.80;53.40;;;;;;5073397;28;20036;-75
2024/02/26 12:32:57;;;;;;;4.85;2.00;;;16.80;53.80;;;;;;5073385;28;20029;-74
2024/02/26 12:35:23;;;;;;;4.75;2.10;;;16.80;53.90;;;;;;5055212;28;20090;-75